Time;durP1;ratioP1;P1;durP2;ratioP2;P2;SDS_P1;SDS_P2;PMS_P1;PMS_P2;Temp;Humidity;BMP_temperature;BMP_pressure;BME280_temperature;BME280_humidity;BME280_pressure;Samples;Min_cycle;Max_cycle;Signal;HPM_P1;HPM_P2
2023/06/10 00:01:12;;;;;;;;;;;;;;;20.26;100.00;99317.81;4990364;28;19975;-76
2023/06/10 00:03:37;;;;;;;;;;;;;;;20.25;100.00;99316.97;4993483;28;19930;-73
2023/06/10 00:06:03;;;;;;;9.80;8.40;;;;;;;20.24;100.00;99319.88;4990200;28;19917;-73
2023/06/10 00:08:31;;;;;;;9.30;8.40;;;;;;;20.24;100.00;99319.88;4990061;28;19917;-74
2023/06/10 00:10:56;;;;;;;;;;;;;;;20.21;100.00;99320.28;4989677;28;20084;-74
2023/06/10 00:13:22;;;;;;;;;;;;;;;20.22;100.00;99313.88;4990311;28;19921;-73
2023/06/10 00:15:48;;;;;;;;;;;;;;;20.21;100.00;99313.06;4989992;28;20408;-74
2023/06/10 00:18:14;;;;;;;;;;;;;;;20.21;100.00;99320.28;4972391;28;19918;-74
2023/06/10 00:20:39;;;;;;;;;;;;;;;20.21;100.00;99314.91;4989618;28;21637;-74
2023/06/10 00:23:08;;;;;;;;;;;;;;;20.20;100.00;99308.75;4989547;28;19922;-73
2023/06/10 00:25:33;;;;;;;;;;;;;;;20.22;100.00;99311.22;4994078;28;20292;-74
2023/06/10 00:27:59;;;;;;;10.03;9.13;;;;;;;20.22;100.00;99305.84;4993481;28;20012;-74
2023/06/10 00:30:24;;;;;;;;;;;;;;;20.22;100.00;99305.84;4995895;28;19935;-74
2023/06/10 00:32:50;;;;;;;;;;;;;;;20.17;100.00;99316.38;4974026;28;19918;-74
2023/06/10 00:35:15;;;;;;;;;;;;;;;20.18;100.00;99301.94;4999830;28;20008;-76
2023/06/10 00:37:40;;;;;;;9.33;8.40;;;;;;;20.17;100.00;99313.69;4994048;28;19917;-73
2023/06/10 00:40:07;;;;;;;;;;;;;;;20.14;100.00;99298.06;4975383;28;20020;-73
2023/06/10 00:42:33;;;;;;;;;;;;;;;20.15;100.00;99305.88;4993733;28;19917;-73
2023/06/10 00:44:58;;;;;;;;;;;;;;;20.12;100.00;99305.47;4994024;28;19925;-73
2023/06/10 00:47:25;;;;;;;14.00;8.30;;;;;;;20.11;100.00;99307.31;4993508;28;19918;-74
2023/06/10 00:49:50;;;;;;;;;;;;;;;20.11;100.00;99296.63;4992762;28;20125;-76
2023/06/10 00:52:16;;;;;;;;;;;;;;;20.11;100.00;99303.81;4973703;28;20452;-74
2023/06/10 00:54:41;;;;;;;;;;;;;;;20.10;100.00;99297.63;4992820;28;19925;-76
2023/06/10 00:57:07;;;;;;;;;;;;;;;20.09;100.00;99301.34;4994622;28;19922;-73
2023/06/10 00:59:34;;;;;;;;;;;;;;;20.10;100.00;99302.16;4992313;28;19922;-74
2023/06/10 01:02:00;;;;;;;;;;;;;;;20.07;100.00;99297.25;4991608;28;19921;-76
2023/06/10 01:04:26;;;;;;;;;;;;;;;20.04;100.00;99296.63;4992768;28;19917;-74
2023/06/10 01:07:05;;;;;;;;;;;;;;;20.03;100.00;99294.16;4993626;28;20049;-74
2023/06/10 01:09:30;;;;;;;;;;;;;;;19.98;100.00;99299.31;4965117;28;20397;-76
2023/06/10 01:12:03;;;;;;;;;;;;;;;19.98;100.00;99297.47;4993145;28;19917;-74
2023/06/10 01:14:29;;;;;;;;;;;;;;;19.95;100.00;99287.19;4997133;28;20043;-75
2023/06/10 01:16:54;;;;;;;;;;;;;;;19.97;100.00;99285.09;4975574;28;19959;-75
2023/06/10 01:19:19;;;;;;;;;;;;;;;19.91;100.00;99283.25;4995531;28;20056;-74
2023/06/10 01:21:48;;;;;;;;;;;;;;;19.87;100.00;99287.38;4975638;28;19957;-75
2023/06/10 01:24:14;;;;;;;;;;;;;;;19.85;100.00;99284.09;4995628;28;20019;-73
2023/06/10 01:26:41;;;;;;;;;;;;;;;19.86;100.00;99285.75;4994661;28;19926;-75
2023/06/10 01:29:11;;;;;;;;;;;;;;;19.88;100.00;99283.69;4978812;28;20448;-74
2023/06/10 01:31:40;;;;;;;;;;;;;;;19.89;100.00;99289.88;4977457;28;19922;-74
2023/06/10 01:34:09;;;;;;;;;;;;;;;19.87;100.00;99287.38;4993465;28;20056;-73
2023/06/10 01:36:36;;;;;;;;;;;;;;;19.83;100.00;99288.84;4991536;28;20411;-73
2023/06/10 01:39:03;;;;;;;;;;;;;;;19.81;100.00;99287.41;4994245;28;19918;-75
2023/06/10 01:41:28;;;;;;;;;;;;;;;19.81;100.00;99285.56;4993469;28;19929;-75
2023/06/10 01:43:54;;;;;;;;;;;;;;;19.83;100.00;99282.66;4998046;28;19921;-74
2023/06/10 01:46:21;;;;;;;;;;;;;;;19.75;100.00;99289.06;4999311;28;20009;-73
2023/06/10 01:48:46;;;;;;;;;;;;;;;19.60;100.00;99291.16;4992806;28;19922;-74
2023/06/10 01:51:12;;;;;;;8.20;6.40;;;;;;;19.56;100.00;99284.53;4995137;28;19937;-74
2023/06/10 01:53:37;;;;;;;;;;;;;;;19.50;100.00;99291.53;4992525;28;20034;-75
2023/06/10 01:56:03;;;;;;;;;;;;;;;19.52;100.00;99288.66;4991796;28;20394;-76
2023/06/10 01:58:28;;;;;;;8.00;7.30;;;;;;;19.54;100.00;99282.09;4990753;28;19922;-73
2023/06/10 02:00:54;;;;;;;7.50;6.90;;;;;;;19.54;100.00;99281.28;4975363;28;19929;-74
2023/06/10 02:03:20;;;;;;;;;;;;;;;19.51;100.00;99276.31;4990996;28;20382;-74
2023/06/10 02:05:45;;;;;;;;;;;;;;;19.46;100.00;99273.44;4977215;28;19976;-75
2023/06/10 02:08:10;;;;;;;;;;;;;;;19.47;100.00;99283.13;4978762;28;20450;-75
2023/06/10 02:10:36;;;;;;;8.55;6.70;;;;;;;19.49;100.00;99273.03;4992035;28;19928;-75
2023/06/10 02:13:02;;;;;;;;;;;;;;;19.51;100.00;99271.78;4991609;28;19968;-75
2023/06/10 02:15:28;;;;;;;;;;;;;;;19.50;100.00;99274.66;4976195;28;20331;-75
2023/06/10 02:17:54;;;;;;;;;;;;;;;19.51;100.00;99265.59;4977210;28;19918;-76
2023/06/10 02:20:20;;;;;;;;;;;;;;;19.55;100.00;99273.03;4986057;28;19918;-74
2023/06/10 02:22:46;;;;;;;;;;;;;;;19.57;100.00;99264.78;4994710;28;19917;-74
2023/06/10 02:25:11;;;;;;;;;;;;;;;19.57;100.00;99275.50;4993265;28;19932;-76
2023/06/10 02:27:37;;;;;;;;;;;;;;;19.59;100.00;99270.75;4992659;28;19948;-74
2023/06/10 02:30:02;;;;;;;;;;;;;;;19.60;100.00;99267.88;4991432;28;20052;-74
2023/06/10 02:32:30;;;;;;;;;;;;;;;19.63;100.00;99266.63;4976555;28;19918;-75
2023/06/10 02:34:55;;;;;;;;;;;;;;;19.63;100.00;99263.94;4975090;28;19918;-76
2023/06/10 02:37:23;;;;;;;;;;;;;;;19.64;100.00;99257.56;4973461;28;19992;-75
2023/06/10 02:39:49;;;;;;;;;;;;;;;19.64;100.00;99262.94;4991783;28;19988;-74
2023/06/10 02:42:14;;;;;;;;;;;;;;;19.62;100.00;99267.66;4973399;28;19925;-75
2023/06/10 02:44:40;;;;;;;;;;;;;;;19.63;100.00;99263.94;4993275;28;19918;-75
2023/06/10 02:47:08;;;;;;;;;;;;;;;19.64;100.00;99260.25;4988408;28;20358;-75
2023/06/10 02:49:35;;;;;;;;;;;;;;;19.63;100.00;99263.94;4972299;28;19918;-76
2023/06/10 02:52:01;;;;;;;;;;;;;;;19.63;100.00;99263.94;4991302;28;20294;-73
2023/06/10 02:54:26;;;;;;;;;;;;;;;19.61;100.00;99260.69;4986356;28;19922;-74
2023/06/10 02:56:55;;;;;;;;;;;;;;;19.61;100.00;99258.00;4978639;28;19918;-74
2023/06/10 02:59:23;;;;;;;;;;;;;;;19.58;100.00;99258.41;4983252;28;19918;-74
2023/06/10 03:01:48;;;;;;;;;;;;;;;19.57;100.00;99259.44;4977120;28;20433;-74
2023/06/10 03:04:14;;;;;;;;;;;;;;;19.50;100.00;99261.28;4975684;28;19921;-75
2023/06/10 03:06:45;;;;;;;;;;;;;;;19.54;100.00;99265.22;4974069;28;20365;-75
2023/06/10 03:09:17;;;;;;;;;;;;;;;19.55;100.00;99272.22;4976265;28;20676;-74
2023/06/10 03:11:46;;;;;;;;;;;;;;;19.55;100.00;99272.22;4987074;28;19918;-74
2023/06/10 03:14:12;;;;;;;;;;;;;;;19.56;100.00;99265.81;4993888;22;19980;-73
2023/06/10 03:16:40;;;;;;;;;;;;;;;19.57;100.00;99260.25;5013700;28;19936;-74
2023/06/10 03:19:07;;;;;;;;;;;;;;;19.59;100.00;99268.09;5013323;28;20301;-75
2023/06/10 03:21:37;;;;;;;;;;;;;;;19.57;100.00;99270.13;5026713;28;20266;-75
2023/06/10 03:24:03;;;;;;;;;;;;;;;19.56;100.00;99268.47;5014846;28;20759;-74
2023/06/10 03:26:30;;;;;;;;;;;;;;;19.55;100.00;99272.22;5011577;28;19924;-74
2023/06/10 03:28:55;;;;;;;;;;;;;;;19.52;100.00;99272.63;5012683;28;20381;-76
2023/06/10 03:31:24;;;;;;;;;;;;;;;19.44;100.00;99265.56;5032587;28;20368;-75
2023/06/10 03:33:50;;;;;;;;;;;;;;;19.39;100.00;99275.25;5014868;28;20021;-75
2023/06/10 03:36:15;;;;;;;;;;;;;;;19.41;100.00;99275.88;5030347;28;19921;-73
2023/06/10 03:38:41;;;;;;;10.80;7.90;;;;;;;19.43;100.00;99276.50;5032197;28;19924;-75
2023/06/10 03:41:07;;;;;;;;;;;;;;;19.45;100.00;99275.28;5012459;28;19917;-75
2023/06/10 03:43:33;;;;;;;8.00;7.30;;;;;;;19.45;100.00;99272.63;5037281;28;19917;-75
2023/06/10 03:45:59;;;;;;;;;;;;;;;19.47;100.00;99275.09;5014089;28;19925;-75
2023/06/10 03:48:25;;;;;;;8.40;7.53;;;;;;;19.48;100.00;99277.56;5014027;28;19917;-76
2023/06/10 03:50:52;;;;;;;8.35;7.53;;;;;;;19.44;100.00;99264.78;5011726;28;20075;-75
2023/06/10 03:53:19;;;;;;;9.20;8.30;;;;;;;19.39;100.00;99264.56;5014420;28;20029;-75
2023/06/10 03:55:45;;;;;;;;;;;;;;;19.40;100.00;99271.56;5030364;28;20109;-74
2023/06/10 03:58:13;;;;;;;;;;;;;;;19.33;100.00;99271.56;5032241;28;20020;-76
2023/06/10 04:00:41;;;;;;;;;;;;;;;19.33;100.00;99273.41;5014150;28;19925;-76
2023/06/10 04:03:14;;;;;;;;;;;;;;;19.33;100.00;99274.22;5034318;28;19999;-76
2023/06/10 04:05:42;;;;;;;;;;;;;;;19.33;100.00;99268.03;5016155;28;20011;-76
2023/06/10 04:08:08;;;;;;;;;;;;;;;19.36;100.00;99276.50;5034102;28;19999;-76
2023/06/10 04:10:33;;;;;;;;;;;;;;;19.39;100.00;99268.06;5017688;28;20020;-76
2023/06/10 04:12:59;;;;;;;;;;;;;;;19.41;100.00;99265.19;5014014;28;20288;-76
2023/06/10 04:15:32;;;;;;;;;;;;;;;19.40;100.00;99263.53;5009221;28;20354;-75
2023/06/10 04:17:59;;;;;;;;;;;;;;;19.38;100.00;99260.25;4996643;28;19983;-76
2023/06/10 04:20:26;;;;;;;;;;;;;;;19.42;100.00;99256.13;5010299;28;20329;-76
2023/06/10 04:22:51;;;;;;;;;;;;;;;19.46;100.00;99262.72;5010770;28;19918;-75
2023/06/10 04:25:18;;;;;;;;;;;;;;;19.49;100.00;99259.66;4990579;28;20354;-75
2023/06/10 04:27:43;;;;;;;;;;;;;;;19.48;100.00;99255.34;5009665;28;19971;-75
2023/06/10 04:30:10;;;;;;;;;;;;;;;19.50;100.00;99255.94;5013580;28;20329;-78
2023/06/10 04:32:36;;;;;;;;;;;;;;;19.48;100.00;99255.34;5009631;28;20039;-75
2023/06/10 04:35:02;;;;;;;;;;;;;;;19.46;100.00;99263.56;5005691;28;20297;-75
2023/06/10 04:37:29;;;;;;;;;;;;;;;19.49;100.00;99263.16;5011498;28;20019;-74
2023/06/10 04:39:54;;;;;;;;;;;;;;;19.47;100.00;99256.34;4994057;28;20339;-74
2023/06/10 04:42:20;;;;;;;;;;;;;;;19.44;100.00;99259.44;5009412;28;19918;-74
2023/06/10 04:44:46;;;;;;;;;;;;;;;19.37;100.00;99258.59;5011508;28;19925;-74
2023/06/10 04:47:11;;;;;;;;;;;;;;;19.21;100.00;99271.34;5008841;28;19921;-74
2023/06/10 04:49:37;;;;;;;;;;;;;;;19.19;100.00;99262.72;5012420;28;19943;-73
2023/06/10 04:52:04;;;;;;;;;;;;;;;19.22;100.00;99259.63;5011769;28;19924;-74
2023/06/10 04:54:33;;;;;;;;;;;;;;;19.25;100.00;99262.94;5011885;28;19917;-73
2023/06/10 04:57:00;;;;;;;;;;;;;;;19.28;100.00;99265.16;5011868;28;19923;-74
2023/06/10 04:59:25;;;;;;;;;;;;;;;19.32;100.00;99266.44;5010007;28;19944;-74
2023/06/10 05:01:51;;;;;;;;;;;;;;;19.31;100.00;99262.09;5009970;28;19917;-74
2023/06/10 05:04:16;;;;;;;;;;;;;;;19.36;100.00;99263.13;5012570;28;19949;-75
2023/06/10 05:06:42;;;;;;;;;;;;;;;19.39;100.00;99261.88;5011654;28;19948;-74
2023/06/10 05:09:07;;;;;;;;;;;;;;;19.38;100.00;99260.25;5012739;28;19940;-75
2023/06/10 05:11:33;;;;;;;;;;;;;;;19.38;100.00;99270.97;5017045;28;19917;-74
2023/06/10 05:13:58;;;;;;;;;;;;;;;19.39;100.00;99272.56;5016667;28;19922;-75
2023/06/10 05:16:24;;;;;;;;;;;;;;;19.33;100.00;99270.72;5034264;28;20016;-73
2023/06/10 05:18:50;;;;;;;;;;;;;;;19.28;100.00;99265.16;5038697;28;19917;-74
2023/06/10 05:21:16;;;;;;;;;;;;;;;19.31;100.00;99256.75;5035080;28;19928;-73
2023/06/10 05:23:42;;;;;;;;;;;;;;;19.35;100.00;99255.31;5040366;28;19921;-74
2023/06/10 05:26:07;;;;;;;;;;;;;;;19.29;100.00;99256.13;5034855;28;19917;-74
2023/06/10 05:28:33;;;;;;;;;;;;;;;19.35;100.00;99252.63;5018157;28;20389;-74
2023/06/10 05:30:58;;;;;;;;;;;;;;;19.39;100.00;99248.50;5036071;28;19964;-76
2023/06/10 05:33:24;;;;;;;;;;;;;;;19.41;100.00;99254.47;5035739;28;19925;-74
2023/06/10 05:35:49;;;;;;;;;;;;;;;19.43;100.00;99253.25;5039777;28;19970;-76
2023/06/10 05:38:15;;;;;;;;;;;;;;;19.47;100.00;99253.69;5036172;28;19983;-75
2023/06/10 05:40:40;;;;;;;;;;;;;;;19.52;100.00;99251.19;5037568;28;19928;-76
2023/06/10 05:43:06;;;;;;;;;;;;;;;19.57;100.00;99259.44;5040689;28;19924;-76
2023/06/10 05:45:31;;;;;;;;;;;;;;;19.60;100.00;99264.38;5037764;28;19917;-77
2023/06/10 05:47:57;;;;;;;;;;;;;;;19.66;100.00;99263.56;5035735;28;19968;-77
2023/06/10 05:50:24;;;;;;;;;;;;;;;19.72;100.00;99264.56;5038261;28;19939;-75
2023/06/10 05:52:49;;;;;;;;;;;;;;;19.76;100.00;99266.63;5034644;28;19939;-75
2023/06/10 05:55:15;;;;;;;;;;;;;;;19.77;100.00;99270.94;5035366;28;20011;-76
2023/06/10 05:57:41;;;;;;;;;;;;;;;19.79;100.00;99274.22;5036267;28;19955;-75
2023/06/10 06:00:07;;;;;;;;;;;;;;;19.81;100.00;99272.16;5035189;28;19958;-75
2023/06/10 06:02:37;;;;;;;;;;;;;;;19.78;100.00;99272.59;5041019;28;20040;-76
2023/06/10 06:05:03;;;;;;;;;;;;;;;19.77;100.00;99276.28;5035497;28;20373;-75
2023/06/10 06:07:29;;;;;;;;;;;;;;;19.84;100.00;99270.94;5036754;28;19935;-77
2023/06/10 06:09:55;;;;;;;;;;;;;;;19.88;100.00;99274.81;5017493;28;19986;-75
2023/06/10 06:12:20;;;;;;;;;;;;;;;19.85;100.00;99275.25;5034083;28;19917;-75
2023/06/10 06:14:46;;;;;;;;;;;;;;;19.86;100.00;99280.38;5029905;28;19924;-75
2023/06/10 06:17:11;;;;;;;;;;;;;;;19.86;100.00;99280.38;5032317;28;19921;-76
2023/06/10 06:19:36;;;;;;;;;;;;;;;19.91;100.00;99280.56;5031725;28;19917;-76
2023/06/10 06:22:02;;;;;;;;;;;;;;;19.88;100.00;99277.50;5034531;28;19916;-74
2023/06/10 06:24:28;;;;;;;;;;;;;;;19.84;100.00;99282.47;5031084;28;20266;-75
2023/06/10 06:26:53;;;;;;;;;;;;;;;19.90;100.00;99276.28;5030776;28;20300;-75
2023/06/10 06:29:18;;;;;;;;;;;;;;;19.94;100.00;99272.13;5031013;28;20300;-74
2023/06/10 06:31:44;;;;;;;;;;;;;;;20.03;100.00;99270.88;5026598;28;19924;-77
2023/06/10 06:34:09;;;;;;;;;;;;;;;20.13;100.00;99277.66;5034618;28;19923;-76
2023/06/10 06:36:34;;;;;;;;;;;;;;;20.23;100.00;99270.00;5013239;28;20273;-75
2023/06/10 06:39:00;;;;;;;;;;;;;;;20.34;100.00;99274.72;5028054;28;19913;-77
2023/06/10 06:41:26;;;;;;;;;;;;;;;20.44;100.00;99272.41;5013534;28;20332;-75
2023/06/10 06:43:53;;;;;;;;;;;;;;;20.48;100.00;99278.16;5024815;28;19956;-75
2023/06/10 06:46:29;;;;;;;;;;;;;;;20.61;100.00;99278.94;5030782;28;20016;-75
2023/06/10 06:48:55;;;;;;;;;;;;;;;20.74;100.00;99284.22;5030699;28;20024;-75
2023/06/10 06:51:20;;;;;;;;;;;;;;;20.82;100.00;99281.28;5030628;28;19957;-75
2023/06/10 06:53:46;;;;;;;;;;;;;;;20.83;100.00;99277.56;5030916;28;19955;-72
2023/06/10 06:56:12;;;;;;;;;;;;;;;20.91;100.00;99270.31;5030041;28;19920;-74
2023/06/10 06:58:37;;;;;;;;;;;;;;;20.96;100.00;99270.50;5030294;28;19917;-74
2023/06/10 07:01:03;;;;;;;;;;;;;;;20.99;100.00;99275.41;5029692;28;19924;-74
2023/06/10 07:03:28;;;;;;;;;;;;;;;21.07;100.00;99275.16;5009053;28;19928;-74
2023/06/10 07:05:53;;;;;;;;;;;;;;;21.13;100.00;99282.34;5029830;28;20354;-75
2023/06/10 07:08:19;;;;;;;;;;;;;;;21.17;100.00;99279.03;5030756;28;20281;-76
2023/06/10 07:10:44;;;;;;;;;;;;;;;21.22;100.00;99286.41;5012758;28;19970;-75
2023/06/10 07:13:10;;;;;;;;;;;;;;;21.24;100.00;99287.03;5029732;28;19917;-75
2023/06/10 07:15:35;;;;;;;;;;;;;;;21.11;100.00;99287.91;5029923;28;20299;-75
2023/06/10 07:18:01;;;;;;;;;;;;;;;21.10;100.00;99288.13;5012520;28;19917;-76
2023/06/10 07:20:26;;;;;;;;;;;;;;;20.95;100.00;99290.28;5029674;28;19917;-76
2023/06/10 07:22:52;;;;;;;;;;;;;;;20.93;100.00;99287.00;5032288;28;19967;-75
2023/06/10 07:25:17;;;;;;;;;;;;;;;20.91;100.00;99284.53;5032462;28;19917;-75
2023/06/10 07:27:43;;;;;;;;;;;;;;;20.94;100.00;99280.59;5032467;28;19999;-75
2023/06/10 07:30:08;;;;;;;;;;;;;;;20.89;100.00;99285.78;5025379;28;19925;-76
2023/06/10 07:32:34;;;;;;;;;;;;;;;21.00;100.00;99298.50;5012554;28;19917;-75
2023/06/10 07:35:00;;;;;;;;;;;;;;;21.04;100.00;99286.31;5011296;28;19917;-76
2023/06/10 07:37:25;;;;;;;;;;;;;;;21.13;100.00;99296.56;5012821;28;19920;-76
2023/06/10 07:39:51;;;;;;;;;;;;;;;21.19;100.00;99295.75;5030242;28;19996;-75
2023/06/10 07:42:17;;;;;;;;;;;;;;;21.19;100.00;99289.56;5012063;28;19989;-76
2023/06/10 07:44:42;;;;;;;;;;;;;;;21.02;100.00;99291.91;5011836;28;19964;-76
2023/06/10 07:47:08;;;;;;;;;;;;;;;21.11;100.00;99295.13;5029474;28;19975;-73
2023/06/10 07:49:33;;;;;;;;;;;;;;;21.18;100.00;99295.94;5030080;28;19928;-74
2023/06/10 07:51:58;;;;;;;;;;;;;;;21.20;100.00;99296.56;5029593;28;19925;-75
2023/06/10 07:54:24;;;;;;;;;;;;;;;21.24;100.00;99289.72;5029998;28;19992;-74
2023/06/10 07:56:52;;;;;;;;;;;;;;;21.32;100.00;99296.69;5030155;28;20067;-76
2023/06/10 07:59:17;;;;;;;;;;;;;;;21.38;100.00;99291.28;5011720;28;19920;-76
2023/06/10 08:01:43;;;;;;;;;;;;;;;21.41;100.00;99296.19;5029589;28;19917;-74
2023/06/10 08:04:08;;;;;;;;;;;;;;;21.43;100.00;99294.13;4991273;28;19921;-76
2023/06/10 08:06:34;;;;;;;;;;;;;;;21.48;100.00;99296.97;5013161;28;19921;-75
2023/06/10 08:09:00;;;;;;;;;;;;;;;21.49;100.00;99293.25;5033108;28;19917;-74
2023/06/10 08:11:28;;;;;;;;;;;;;;;21.57;100.00;99295.63;5028353;28;19924;-75
2023/06/10 08:13:53;;;;;;;;;;;;;;;21.58;100.00;99302.66;5029735;28;19917;-80
2023/06/10 08:16:19;;;;;;;;;;;;;;;21.43;100.00;99301.34;5034584;28;19921;-79
2023/06/10 08:18:45;;;;;;;;;;;;;;;21.44;100.00;99301.09;5021551;28;19917;-77
2023/06/10 08:21:10;;;;;;;;;;;;;;;21.30;100.00;99302.25;5011628;28;19921;-78
2023/06/10 08:23:35;;;;;;;;;;;;;;;21.33;100.00;99307.19;5014627;28;19917;-78
2023/06/10 08:26:01;;;;;;;;;;;;;;;21.26;100.00;99297.56;5030394;28;19940;-78
2023/06/10 08:28:26;;;;;;;;;;;;;;;21.28;100.00;99306.19;5027836;28;20012;-78
2023/06/10 08:30:52;;;;;;;;;;;;;;;21.32;100.00;99305.56;5034402;28;19916;-79
2023/06/10 08:33:17;;;;;;;;;;;;;;;21.48;100.00;99306.88;5029763;28;19917;-78
2023/06/10 08:35:43;;;;;;;;;;;;;;;21.62;100.00;99303.03;5011860;28;20000;-77
2023/06/10 08:38:08;;;;;;;;;;;;;;;21.65;100.00;99308.78;5024803;28;19935;-79
2023/06/10 08:40:34;;;;;;;;;;;;;;;21.69;100.00;99305.66;5028567;28;19978;-79
2023/06/10 08:43:02;;;;;;;;;;;;;;;21.70;100.00;99309.97;5033436;28;19925;-78
2023/06/10 08:45:31;;;;;;;;;;;;;;;21.76;100.00;99306.41;5031024;28;20374;-78
2023/06/10 08:47:57;;;;;;;;;;;;;;;21.84;100.00;99306.16;5023361;28;19921;-78
2023/06/10 08:50:22;;;;;;;;;;;;;;;22.00;100.00;99310.97;5035259;28;19962;-78
2023/06/10 08:52:51;;;;;;;;;;;;;;;22.15;100.00;99313.31;5011122;28;19932;-78
2023/06/10 08:55:26;;;;;;;;;;;;;;;22.25;100.00;99309.06;5032443;28;19967;-78
2023/06/10 08:57:52;;;;;;;;;;;;;;;22.32;100.00;99304.44;5033780;28;19921;-78
2023/06/10 09:00:18;;;;;;;;;;;;;;;22.26;100.00;99315.25;5015620;28;20020;-77
2023/06/10 09:02:44;;;;;;;;;;;;;;;22.28;100.00;99313.97;5014696;28;19996;-78
2023/06/10 09:05:10;;;;;;;;;;;;;;;22.39;100.00;99310.53;5032106;28;19956;-78
2023/06/10 09:07:36;;;;;;;;;;;;;;;22.36;100.00;99310.16;5011859;28;19917;-78
2023/06/10 09:10:03;;;;;;;;;;;;;;;22.37;100.00;99301.88;5032326;28;19917;-77
2023/06/10 09:12:29;;;;;;;;;;;;;;;22.45;100.00;99303.44;5038112;28;20310;-78
2023/06/10 09:14:55;;;;;;;;;;;;;;;22.43;100.00;99300.97;5031773;28;19927;-78
2023/06/10 09:17:21;;;;;;;;;;;;;;;22.35;100.00;99309.34;5014348;28;19923;-77
2023/06/10 09:19:47;;;;;;;;;;;;;;;22.33;100.00;99300.66;5032789;28;19916;-79
2023/06/10 09:22:12;;;;;;;;;;;;;;;22.24;100.00;99302.03;5032635;28;19924;-78
2023/06/10 09:24:39;;;;;;;;;;;;;;;22.33;100.00;99306.03;5032889;28;19924;-79
2023/06/10 09:27:06;;;;;;;;;;;;;;;22.46;100.00;99305.91;5032494;28;20346;-77
2023/06/10 09:29:32;;;;;;;;;;;;;;;22.54;100.00;99302.09;5032612;28;20419;-78
2023/06/10 09:31:58;;;;;;;;;;;;;;;22.69;100.00;99299.00;5031575;28;20000;-77
2023/06/10 09:34:25;;;;;;;;;;;;;;;22.82;100.00;99301.53;5032345;28;19953;-77
2023/06/10 09:36:51;;;;;;;;;;;;;;;22.92;100.00;99295.59;5032620;28;19988;-77
2023/06/10 09:39:17;;;;;;;;;;;;;;;23.09;100.00;99294.72;5014618;28;20356;-78
2023/06/10 09:41:43;;;;;;;;;;;;;;;23.19;100.00;99300.38;5015262;28;20277;-77
2023/06/10 09:44:15;;;;;;;;;;;;;;;23.30;100.00;99301.47;5032208;28;19924;-78
2023/06/10 09:46:41;;;;;;;;;;;;;;;23.27;100.00;99297.34;5032200;28;20043;-76
2023/06/10 09:49:06;;;;;;;;;;;;;;;23.42;100.00;99290.72;5032129;28;19999;-77
2023/06/10 09:51:31;;;;;;;;;;;;;;;23.41;100.00;99297.13;5032723;28;20398;-78
2023/06/10 09:53:58;;;;;;;;;;;;;;;23.56;100.00;99294.88;5031866;28;19928;-77
2023/06/10 09:56:33;;;;;;;;;;;;;;;23.59;100.00;99294.38;5032140;28;19923;-79
2023/06/10 09:58:58;;;;;;;;;;;;;;;23.68;100.00;99292.97;5032336;28;20011;-77
2023/06/10 10:01:24;;;;;;;;;;;;;;;23.73;100.00;99290.44;5031347;28;19984;-78
2023/06/10 10:03:50;;;;;;;;;;;;;;;23.61;100.00;99289.59;5030098;28;19929;-78
2023/06/10 10:06:16;;;;;;;;;;;;;;;23.70;100.00;99290.88;5032589;28;19923;-78
2023/06/10 10:08:43;;;;;;;;;;;;;;;23.75;100.00;99282.91;5031985;28;19944;-77
2023/06/10 10:11:08;;;;;;;;;;;;;;;23.79;100.00;99277.88;5032168;28;20241;-78
2023/06/10 10:13:34;;;;;;;;;;;;;;;23.79;100.00;99277.88;5030931;28;20007;-77
2023/06/10 10:16:04;;;;;;;;;;;;;;;23.91;100.00;99276.81;5031516;28;19923;-78
2023/06/10 10:18:30;;;;;;;;;;;;;;;24.05;100.00;99283.59;5031843;28;20308;-79
2023/06/10 10:20:57;;;;;;;;;;;;;;;24.17;100.00;99282.75;5031385;28;20266;-80
2023/06/10 10:23:29;;;;;;;;;;;;;;;24.20;100.00;99280.44;5031828;28;19971;-79
2023/06/10 10:25:57;;;;;;;;;;;;;;;24.08;100.00;99283.13;5031451;28;20011;-79
2023/06/10 10:28:26;;;;;;;;;;;;;;;24.01;100.00;99277.03;5031827;28;19917;-78
2023/06/10 10:30:54;;;;;;;;;;;;;;;24.00;100.00;99278.09;5013637;28;19986;-79
2023/06/10 10:33:22;;;;;;;;;;;;;;;24.06;100.00;99274.44;5014006;28;19928;-78
2023/06/10 10:35:49;;;;;;;;;;;;;;;24.14;100.00;99275.97;5013782;28;20284;-79
2023/06/10 10:38:14;;;;;;;;;;;;;;;24.14;100.00;99280.53;5027050;28;19928;-78
2023/06/10 10:40:41;;;;;;;;;;;;;;;24.17;100.00;99278.19;5013792;28;19917;-78
2023/06/10 10:43:08;;;;;;;;;;;;;;;24.05;100.00;99272.81;5031925;28;19939;-78
2023/06/10 10:45:35;;;;;;;;;;;;;;;24.19;100.00;99275.28;5031723;28;19937;-78
2023/06/10 10:48:05;;;;;;;;;;;;;;;24.36;100.00;99276.19;5031453;28;19939;-79
2023/06/10 10:50:30;;;;;;;;;;;;;;;24.56;100.00;99268.50;5031260;28;20024;-77
2023/06/10 10:52:58;;;;;;;;;;;;;;;24.64;100.00;99264.59;5013303;28;19948;-78
2023/06/10 10:55:25;;;;;;;;;;;;;;;24.80;100.00;99269.22;5031558;28;19916;-78
2023/06/10 10:57:58;;;;;;;;;;;;;;;24.98;100.00;99260.94;5031288;28;19963;-80
2023/06/10 11:00:26;;;;;;;;;;;;;;;25.15;100.00;99266.38;5031515;28;19917;-78
2023/06/10 11:02:53;;;;;;;;;;;;;;;25.27;100.00;99267.13;5031392;28;20335;-79
2023/06/10 11:05:30;;;;;;;;;;;;;;;25.41;100.00;99256.78;5031213;28;19975;-78
2023/06/10 11:07:56;;;;;;;;;;;;;;;25.48;100.00;99266.38;5028026;28;19971;-77
2023/06/10 11:10:31;;;;;;;;;;;;;;;25.55;100.00;99266.22;5030959;28;20004;-77
2023/06/10 11:12:57;;;;;;;;;;;;;;;25.57;100.00;99262.22;5031000;28;19917;-77
2023/06/10 11:15:26;;;;;;;;;;;;;;;25.45;100.00;99261.47;5031266;28;19923;-77
2023/06/10 11:18:11;;;;;;;;;;;;;;;25.53;100.00;99258.34;5031103;28;19917;-78
2023/06/10 11:20:56;;;;;;;;;;;;;;;25.63;100.00;99253.13;5031203;28;20391;-78
2023/06/10 11:23:28;;;;;;;;;;;;;;;25.73;100.00;99254.34;5027324;28;19971;-78
2023/06/10 11:26:09;;;;;;;;;;;;;;;25.77;100.00;99252.78;5030884;28;20339;-78
2023/06/10 11:28:34;;;;;;;;;;;;;;;25.83;100.00;99251.78;5030990;28;19921;-79
2023/06/10 11:30:59;;;;;;;;;;;;;;;25.92;100.00;99255.72;5030854;28;19917;-79
2023/06/10 11:33:25;;;;;;;;;;;;;;;25.89;100.00;99250.78;5013578;28;19919;-80
2023/06/10 11:35:51;;;;;;;;;;;;;;;25.89;100.00;99250.78;5012558;28;19917;-79
2023/06/10 11:38:18;;;;;;;;;;;;;;;25.93;100.00;99246.50;5012593;28;19917;-79
2023/06/10 11:40:50;;;;;;;;;;;;;;;26.03;100.00;99247.50;5030790;28;19917;-79
2023/06/10 11:43:19;;;;;;;;;;;;;;;26.17;100.00;99249.81;5030777;28;20277;-79
2023/06/10 11:45:44;;;;;;;;;;;;;;;26.29;100.00;99237.81;5030771;28;19924;-79
2023/06/10 11:48:12;;;;;;;;;;;;;;;26.39;100.00;99237.94;5030561;28;19921;-80
2023/06/10 11:50:37;;;;;;;;;;;;;;;26.44;100.00;99235.31;5030883;28;20471;-78
2023/06/10 11:53:03;;;;;;;;;;;;;;;26.44;100.00;99237.19;5030165;28;19917;-77
2023/06/10 11:55:48;;;;;;;;;;;;;;;26.54;100.00;99236.50;5030671;28;19921;-77
2023/06/10 11:58:17;;;;;;;;;;;;;;;26.61;100.00;99234.41;5030342;28;19932;-78
2023/06/10 12:00:50;;;;;;;;;;;;;;;26.71;100.00;99237.22;5030541;28;19921;-78
2023/06/10 12:03:16;;;;;;;;;;;;;;;26.72;100.00;99233.44;5012665;28;20029;-78
2023/06/10 12:06:01;;;;;;;;;;;;;;;26.80;100.00;99224.88;5013182;28;20379;-78
2023/06/10 12:08:27;;;;;;;;;;;;;;;26.91;100.00;99229.34;5029909;28;19995;-79
2023/06/10 12:10:53;;;;;;;;;;;;;;;26.91;100.00;99221.22;5030050;28;19924;-78
2023/06/10 12:13:18;;;;;;;;;;;;;;;26.95;100.00;99222.31;5027011;28;19983;-78
2023/06/10 12:15:45;;;;;;;;;;;;;;;26.98;100.00;99221.00;5029766;28;20439;-82
2023/06/10 12:18:36;;;;;;;;;;;;;;;27.00;100.00;99213.41;5030702;28;20020;-88
2023/06/10 12:21:03;;;;;;;;;;;;;;;26.86;100.00;99223.84;5013804;28;20281;-79
2023/06/10 12:23:28;;;;;;;;;;;;;;;26.65;100.00;99216.56;5016937;28;19925;-77
2023/06/10 12:25:54;;;;;;;;;;;;;;;26.55;100.00;99214.59;5034961;28;19917;-78
2023/06/10 12:28:21;;;;;;;;;;;;;;;26.51;100.00;99215.38;5017369;28;19917;-77
2023/06/10 12:30:46;;;;;;;;;;;;;;;26.45;100.00;99209.88;5035449;28;19917;-77